Time;durP1;ratioP1;P1;durP2;ratioP2;P2;SDS_P1;SDS_P2;PMS_P1;PMS_P2;Temp;Humidity;BMP_temperature;BMP_pressure;BME280_temperature;BME280_humidity;BME280_pressure;Samples;Min_cycle;Max_cycle;Signal;HPM_P1;HPM_P2
2021/12/04 00:00:00;;;;;;;1999.90;999.90;;;4.40;99.90;;;;;;5014181;28;20506;-67
2021/12/04 00:02:27;;;;;;;1999.90;999.90;;;4.40;99.90;;;;;;5013782;28;20547;-69
2021/12/04 00:04:57;;;;;;;1999.90;999.90;;;4.50;99.90;;;;;;5013106;28;20460;-69
2021/12/04 00:07:24;;;;;;;1999.90;999.90;;;4.50;99.90;;;;;;5013217;28;20472;-69
2021/12/04 00:09:51;;;;;;;1999.90;999.90;;;4.50;99.90;;;;;;5012922;28;20517;-68
2021/12/04 00:12:19;;;;;;;1999.90;999.90;;;4.50;99.90;;;;;;5013104;28;20502;-69
2021/12/04 00:14:46;;;;;;;1999.90;999.90;;;4.50;99.90;;;;;;5012927;28;20530;-69
2021/12/04 00:17:13;;;;;;;1999.90;999.90;;;4.40;99.90;;;;;;5012908;28;20500;-69
2021/12/04 00:19:39;;;;;;;1999.90;999.90;;;4.40;99.90;;;;;;5013026;28;20444;-69
2021/12/04 00:22:08;;;;;;;1999.90;999.90;;;4.40;99.90;;;;;;5012460;28;20455;-69
2021/12/04 00:24:35;;;;;;;1999.90;999.90;;;4.40;99.90;;;;;;5013071;28;20448;-69
2021/12/04 00:27:02;;;;;;;1999.90;999.90;;;4.40;99.90;;;;;;5012880;28;20472;-69
2021/12/04 00:29:28;;;;;;;1999.90;999.90;;;4.40;99.90;;;;;;5013074;28;20825;-69
2021/12/04 00:31:59;;;;;;;1999.90;999.90;;;4.50;99.90;;;;;;5012388;28;20506;-69
2021/12/04 00:34:28;;;;;;;1999.90;999.90;;;4.50;99.90;;;;;;5013014;28;20475;-69
2021/12/04 00:37:08;;;;;;;1999.90;999.90;;;4.50;99.90;;;;;;5012308;28;21004;-69
2021/12/04 00:50:34;;;;;;;1999.90;999.90;;;4.50;99.90;;;;;;5012140;28;20432;-69
2021/12/04 00:53:01;;;;;;;1999.90;999.90;;;4.60;99.90;;;;;;5012305;28;20511;-69
2021/12/04 00:55:29;;;;;;;1999.90;999.90;;;4.60;99.90;;;;;;5012989;28;20513;-69
2021/12/04 00:57:55;;;;;;;1999.90;999.90;;;4.60;99.90;;;;;;5011899;28;20530;-69
2021/12/04 01:00:23;;;;;;;1999.90;999.90;;;4.60;99.90;;;;;;5012183;28;20955;-69
2021/12/04 01:02:49;;;;;;;1999.90;999.90;;;4.60;99.90;;;;;;5012125;28;20933;-69
2021/12/04 01:05:16;;;;;;;1999.90;999.90;;;4.60;99.90;;;;;;5012094;28;20502;-69
2021/12/04 01:07:43;;;;;;;1999.90;999.90;;;4.60;99.90;;;;;;5012653;28;20542;-69
2021/12/04 01:10:10;;;;;;;1999.90;999.90;;;4.70;99.90;;;;;;5012988;28;20444;-69
2021/12/04 01:12:38;;;;;;;1999.90;999.90;;;4.70;99.90;;;;;;5013789;28;20539;-69
2021/12/04 01:15:05;;;;;;;1999.90;999.90;;;4.70;99.90;;;;;;5012692;28;20530;-69
2021/12/04 01:17:32;;;;;;;1999.90;999.90;;;4.70;99.90;;;;;;5012891;28;20476;-69
2021/12/04 01:19:59;;;;;;;1999.90;999.90;;;4.70;99.90;;;;;;5012279;28;20551;-69
2021/12/04 01:22:26;;;;;;;1999.90;999.90;;;4.60;99.90;;;;;;5012427;28;20452;-69
2021/12/04 01:24:54;;;;;;;1999.90;999.90;;;5.00;99.90;;;;;;5012190;28;20443;-69
2021/12/04 01:27:20;;;;;;;1999.90;999.90;;;4.60;99.90;;;;;;5012070;28;20518;-69
2021/12/04 01:29:48;;;;;;;1999.90;999.90;;;4.50;99.90;;;;;;5011588;28;20456;-69
2021/12/04 01:32:15;;;;;;;1999.90;999.90;;;4.50;99.90;;;;;;5011843;28;20448;-69
2021/12/04 01:34:42;;;;;;;1999.90;999.90;;;4.50;99.90;;;;;;5012062;28;20480;-68
2021/12/04 01:37:09;;;;;;;1999.90;999.90;;;4.50;99.90;;;;;;5012229;28;20468;-69
2021/12/04 01:39:35;;;;;;;1999.90;999.90;;;4.40;99.90;;;;;;5012284;28;20448;-69
2021/12/04 01:42:02;;;;;;;1999.90;999.90;;;4.50;99.90;;;;;;5011717;28;20458;-69
2021/12/04 01:44:29;;;;;;;1999.90;999.90;;;4.40;99.90;;;;;;5012658;28;20467;-69
2021/12/04 01:46:57;;;;;;;1999.90;999.90;;;4.40;99.90;;;;;;5011859;28;20468;-69
2021/12/04 01:49:24;;;;;;;1999.90;999.90;;;4.50;99.90;;;;;;5012347;28;20506;-69
2021/12/04 01:51:51;;;;;;;1999.90;999.90;;;4.60;99.90;;;;;;5011796;28;20452;-68
2021/12/04 01:54:18;;;;;;;1999.90;999.90;;;4.60;99.90;;;;;;5011500;28;20911;-69
2021/12/04 01:56:44;;;;;;;1999.90;999.90;;;4.70;99.90;;;;;;5011082;28;20829;-69
2021/12/04 01:59:11;;;;;;;1999.90;999.90;;;4.80;99.90;;;;;;5012026;28;20444;-69
2021/12/04 02:01:38;;;;;;;1999.90;999.90;;;4.80;99.90;;;;;;5011591;28;20449;-69
2021/12/04 02:04:06;;;;;;;1999.90;999.90;;;4.70;99.90;;;;;;5012080;28;20440;-69
2021/12/04 02:06:33;;;;;;;1999.90;999.90;;;4.80;99.90;;;;;;5011489;28;20475;-68
2021/12/04 02:09:00;;;;;;;1999.90;999.90;;;4.80;99.90;;;;;;5011855;28;20448;-69
2021/12/04 02:11:26;;;;;;;1999.90;999.90;;;4.90;99.90;;;;;;5012137;28;20452;-69
2021/12/04 02:13:53;;;;;;;1999.90;999.90;;;4.90;99.90;;;;;;5012686;28;20480;-69
2021/12/04 02:16:22;;;;;;;1999.90;999.90;;;4.90;99.90;;;;;;5012707;28;20913;-69
2021/12/04 02:18:49;;;;;;;1999.90;999.90;;;4.90;99.90;;;;;;5010976;28;20502;-69
2021/12/04 02:21:17;;;;;;;1999.90;999.90;;;5.00;99.90;;;;;;5011481;28;20447;-69
2021/12/04 02:23:44;;;;;;;1999.90;999.90;;;5.00;99.90;;;;;;5012169;28;20444;-69
2021/12/04 02:26:12;;;;;;;1999.90;999.90;;;5.10;99.90;;;;;;5012441;28;20498;-69
2021/12/04 02:28:38;;;;;;;1999.90;999.90;;;5.10;99.90;;;;;;5014738;28;20451;-69
2021/12/04 02:31:05;;;;;;;1999.90;999.90;;;5.20;99.90;;;;;;5016048;28;20444;-69
2021/12/04 02:33:32;;;;;;;1999.90;999.90;;;5.20;99.90;;;;;;5015655;28;20475;-70
2021/12/04 02:35:58;;;;;;;1999.90;999.90;;;5.10;99.90;;;;;;5015500;28;20524;-69
2021/12/04 02:38:27;;;;;;;1999.90;999.90;;;5.10;99.90;;;;;;5015514;28;20452;-69
2021/12/04 02:40:56;;;;;;;1999.90;999.90;;;5.00;99.90;;;;;;5014531;28;21184;-68
2021/12/04 02:43:24;;;;;;;1999.90;999.90;;;5.00;99.90;;;;;;4995845;28;20495;-70
2021/12/04 02:45:50;;;;;;;1999.90;999.90;;;5.00;99.90;;;;;;4995476;28;20503;-69
2021/12/04 02:48:18;;;;;;;1999.90;999.90;;;5.00;99.90;;;;;;4995382;28;20580;-69
2021/12/04 02:50:45;;;;;;;1999.90;999.90;;;5.00;99.90;;;;;;4994997;28;20977;-69
2021/12/04 02:53:11;;;;;;;1999.90;999.90;;;4.90;99.90;;;;;;4997246;28;20499;-70
2021/12/04 02:55:40;;;;;;;1999.90;999.90;;;4.90;99.90;;;;;;5014632;28;20440;-69
2021/12/04 02:58:07;;;;;;;1999.90;999.90;;;4.80;99.90;;;;;;5014286;28;20955;-69
2021/12/04 03:00:34;;;;;;;1999.90;999.90;;;4.80;99.90;;;;;;5013621;28;20452;-69
2021/12/04 03:03:02;;;;;;;1999.90;999.90;;;4.80;99.90;;;;;;5015552;28;20550;-69
2021/12/04 03:05:30;;;;;;;1999.90;999.90;;;4.80;99.90;;;;;;5014953;28;20535;-69
2021/12/04 03:07:58;;;;;;;1999.90;999.90;;;4.80;99.90;;;;;;5014704;28;20468;-69
2021/12/04 03:10:25;;;;;;;1999.90;999.90;;;4.70;99.90;;;;;;5014538;28;20447;-69
2021/12/04 03:12:54;;;;;;;1999.90;999.90;;;4.80;99.90;;;;;;5014745;28;20440;-69
2021/12/04 03:15:21;;;;;;;1999.90;999.90;;;4.90;99.90;;;;;;5013845;28;20557;-69
2021/12/04 03:17:48;;;;;;;1999.90;999.90;;;4.90;99.90;;;;;;5014156;28;20468;-69
2021/12/04 03:20:15;;;;;;;1999.90;999.90;;;4.80;99.90;;;;;;5014920;28;20539;-69
2021/12/04 03:22:44;;;;;;;1999.90;999.90;;;4.90;99.90;;;;;;5016141;28;20505;-70
2021/12/04 03:25:10;;;;;;;1999.90;999.90;;;4.90;99.90;;;;;;5016340;28;20452;-69
2021/12/04 03:27:39;;;;;;;1999.90;999.90;;;4.90;99.90;;;;;;5014145;28;20475;-70
2021/12/04 03:30:18;;;;;;;1999.90;999.90;;;5.00;99.90;;;;;;5015657;28;20456;-69
2021/12/04 03:39:58;;;;;;;1999.90;999.90;;;5.00;99.90;;;;;;5015392;28;20814;-69
2021/12/04 03:40:58;;;;;;;1999.90;999.90;;;5.00;99.90;;;;;;5016321;28;20571;-70
2021/12/04 03:43:25;;;;;;;1999.90;999.90;;;5.00;99.90;;;;;;5017554;28;20456;-70
2021/12/04 03:45:58;;;;;;;1999.90;999.90;;;5.10;99.90;;;;;;5016732;28;20447;-71
2021/12/04 03:51:08;;;;;;;1999.90;999.90;;;5.00;99.90;;;;;;5016576;28;20411;-70
2021/12/04 03:53:36;;;;;;;1999.90;999.90;;;5.10;99.90;;;;;;5016668;28;20666;-69
2021/12/04 03:56:03;;;;;;;1999.90;999.90;;;5.30;99.90;;;;;;5016512;28;20832;-69
2021/12/04 03:58:30;;;;;;;1999.90;999.90;;;5.30;99.90;;;;;;5014903;28;20840;-69
2021/12/04 04:00:58;;;;;;;1999.90;999.90;;;5.30;99.90;;;;;;5014667;28;20444;-70
2021/12/04 04:03:27;;;;;;;1999.90;999.90;;;5.00;99.90;;;;;;5016049;28;20452;-70
2021/12/04 04:05:54;;;;;;;1999.90;999.90;;;4.90;99.90;;;;;;5016928;28;20531;-69
2021/12/04 04:08:21;;;;;;;1999.90;999.90;;;4.80;99.90;;;;;;5015593;28;20444;-69
2021/12/04 04:10:49;;;;;;;1999.90;999.90;;;4.70;99.90;;;;;;5015364;28;20899;-69
2021/12/04 04:13:16;;;;;;;1999.90;999.90;;;4.80;99.90;;;;;;5017112;28;20452;-69
2021/12/04 04:15:43;;;;;;;1999.90;999.90;;;4.80;99.90;;;;;;5017869;28;20487;-70
2021/12/04 04:18:11;;;;;;;1999.90;999.90;;;4.80;99.90;;;;;;5017488;28;20448;-71
2021/12/04 04:20:37;;;;;;;1999.90;999.90;;;4.80;99.90;;;;;;5017382;28;20452;-70
2021/12/04 04:23:04;;;;;;;1999.90;999.90;;;4.90;99.90;;;;;;5016952;28;20448;-70
2021/12/04 04:25:31;;;;;;;1999.90;999.90;;;4.90;99.90;;;;;;5017164;28;20444;-69
2021/12/04 04:27:58;;;;;;;1999.90;999.90;;;4.90;99.90;;;;;;5016180;28;20448;-70
2021/12/04 04:30:25;;;;;;;1999.90;999.90;;;4.90;99.90;;;;;;5013128;28;20499;-68
2021/12/04 04:32:53;;;;;;;1999.90;999.90;;;4.70;99.90;;;;;;5013524;28;20482;-69
2021/12/04 04:35:24;;;;;;;1999.90;999.90;;;4.70;99.90;;;;;;5013657;28;20601;-69
2021/12/04 04:37:56;;;;;;;1999.90;999.90;;;4.80;99.90;;;;;;5013233;28;21014;-70
2021/12/04 04:59:55;;;;;;;1999.90;999.90;;;4.60;99.90;;;;;;5012528;28;20991;-69
2021/12/04 05:02:40;;;;;;;1999.90;999.90;;;4.40;99.90;;;;;;5012065;28;20451;-69
2021/12/04 05:13:22;;;;;;;1999.90;999.90;;;4.40;99.90;;;;;;5012707;28;20412;-69
2021/12/04 05:15:58;;;;;;;1999.90;999.90;;;4.40;99.90;;;;;;5012847;28;20486;-69
2021/12/04 05:18:35;;;;;;;1999.90;999.90;;;4.40;99.90;;;;;;5012365;28;20460;-69
2021/12/04 05:21:05;;;;;;;1999.90;999.90;;;4.40;99.90;;;;;;5012925;28;20514;-70
2021/12/04 05:23:34;;;;;;;1999.90;999.90;;;4.40;99.90;;;;;;5013136;28;20448;-72
2021/12/04 05:26:00;;;;;;;1999.90;999.90;;;4.30;99.90;;;;;;5012084;28;20468;-71
2021/12/04 05:28:27;;;;;;;1999.90;999.90;;;4.40;99.90;;;;;;5011965;28;20452;-71
2021/12/04 05:30:54;;;;;;;1999.90;999.90;;;4.40;99.90;;;;;;5011511;28;20827;-71
2021/12/04 05:33:20;;;;;;;1999.90;999.90;;;4.30;99.90;;;;;;5012467;28;20452;-69
2021/12/04 05:35:48;;;;;;;1999.90;999.90;;;4.30;99.90;;;;;;5013777;28;20484;-70
2021/12/04 05:38:15;;;;;;;1999.90;999.90;;;4.30;99.90;;;;;;5013921;28;20448;-69
2021/12/04 05:40:43;;;;;;;1999.90;999.90;;;4.40;99.90;;;;;;5013958;28;20535;-69
2021/12/04 05:43:11;;;;;;;1999.90;999.90;;;4.30;99.90;;;;;;5013542;28;20451;-69
2021/12/04 05:45:42;;;;;;;1999.90;999.90;;;4.30;99.90;;;;;;5013140;28;21026;-69
2021/12/04 05:48:12;;;;;;;1999.90;999.90;;;4.30;99.90;;;;;;5012444;28;20455;-69
2021/12/04 05:51:04;;;;;;;1999.90;999.90;;;4.10;99.90;;;;;;5011485;28;20968;-69
2021/12/04 05:53:41;;;;;;;1999.90;999.90;;;4.10;99.90;;;;;;5012267;28;20456;-70
2021/12/04 05:56:09;;;;;;;1999.90;999.90;;;4.30;99.90;;;;;;5013276;28;20587;-69
2021/12/04 05:58:36;;;;;;;1999.90;999.90;;;4.40;99.90;;;;;;5013169;28;20498;-69
2021/12/04 06:01:05;;;;;;;1999.90;999.90;;;4.30;99.90;;;;;;5013540;28;20503;-71
2021/12/04 06:03:32;;;;;;;1999.90;999.90;;;4.20;99.90;;;;;;5014623;28;20448;-70
2021/12/04 06:05:59;;;;;;;1999.90;999.90;;;4.40;99.90;;;;;;5016817;28;20460;-70
2021/12/04 06:08:26;;;;;;;1999.90;999.90;;;4.50;99.90;;;;;;5016463;28;20937;-70
2021/12/04 06:10:53;;;;;;;1999.90;999.90;;;4.40;99.90;;;;;;5015883;28;20475;-70
2021/12/04 06:13:22;;;;;;;1999.90;999.90;;;4.30;99.90;;;;;;5017614;28;20451;-69
2021/12/04 06:15:48;;;;;;;1999.90;999.90;;;4.40;99.90;;;;;;5016803;28;21074;-69
2021/12/04 06:18:16;;;;;;;1999.90;999.90;;;4.40;99.90;;;;;;5016925;28;20451;-70
2021/12/04 06:23:28;;;;;;;1999.90;999.90;;;4.50;99.90;;;;;;5015093;28;20436;-69
2021/12/04 06:25:55;;;;;;;1999.90;999.90;;;4.40;99.90;;;;;;5015403;28;20521;-69
2021/12/04 06:28:23;;;;;;;1999.90;999.90;;;4.40;99.90;;;;;;5015300;28;20452;-69
2021/12/04 06:30:51;;;;;;;1999.90;999.90;;;4.40;99.90;;;;;;5014651;28;20509;-69
2021/12/04 06:33:17;;;;;;;1999.90;999.90;;;4.10;99.90;;;;;;5015260;28;21010;-70
2021/12/04 06:35:46;;;;;;;1999.90;999.90;;;4.00;99.90;;;;;;5014837;28;20484;-69
2021/12/04 06:38:14;;;;;;;1999.90;999.90;;;3.90;99.90;;;;;;5015300;28;20498;-70
2021/12/04 06:40:41;;;;;;;1999.90;999.90;;;3.90;99.90;;;;;;5015406;28;20444;-69
2021/12/04 06:43:09;;;;;;;1999.90;999.90;;;4.00;99.90;;;;;;5015274;28;20456;-71
2021/12/04 06:45:41;;;;;;;1999.90;999.90;;;4.00;99.90;;;;;;5015706;28;20444;-70
2021/12/04 06:48:10;;;;;;;1999.90;999.90;;;4.20;99.90;;;;;;5014947;28;20551;-69
2021/12/04 06:50:42;;;;;;;1999.90;999.90;;;4.30;99.90;;;;;;5014513;28;20510;-69
2021/12/04 06:53:18;;;;;;;1999.90;999.90;;;4.20;99.90;;;;;;5014668;28;20443;-71
2021/12/04 06:55:48;;;;;;;1999.90;999.90;;;4.20;99.90;;;;;;5014453;28;20487;-71
2021/12/04 06:58:15;;;;;;;1999.90;999.90;;;4.00;99.90;;;;;;5014183;28;20957;-69
2021/12/04 07:00:43;;;;;;;1999.90;999.90;;;3.90;99.90;;;;;;5014330;28;20510;-70
2021/12/04 07:03:10;;;;;;;1999.90;999.90;;;3.90;99.90;;;;;;5014827;28;20475;-69
2021/12/04 07:05:37;;;;;;;1999.90;999.90;;;4.00;99.90;;;;;;5014193;28;20510;-69
2021/12/04 07:08:05;;;;;;;1999.90;999.90;;;4.00;99.90;;;;;;5014563;28;20447;-69
2021/12/04 07:10:32;;;;;;;1999.90;999.90;;;4.00;99.90;;;;;;5013941;28;21142;-69
2021/12/04 07:12:58;;;;;;;1999.90;999.90;;;4.00;99.90;;;;;;5014372;28;20477;-69
2021/12/04 07:15:27;;;;;;;1999.90;999.90;;;4.00;99.90;;;;;;5014043;28;20480;-69
2021/12/04 07:17:55;;;;;;;1999.90;999.90;;;4.00;99.90;;;;;;5013900;28;21002;-69
2021/12/04 07:20:21;;;;;;;1999.90;999.90;;;4.00;99.90;;;;;;5014162;28;20455;-70
2021/12/04 07:22:48;;;;;;;1999.90;999.90;;;3.90;99.90;;;;;;5014181;28;20943;-69
2021/12/04 07:25:15;;;;;;;1999.90;999.90;;;3.80;99.90;;;;;;5014362;28;20471;-68
2021/12/04 07:27:42;;;;;;;1999.90;999.90;;;3.90;99.90;;;;;;5013804;28;20476;-69
2021/12/04 07:30:10;;;;;;;1999.90;999.90;;;4.00;99.90;;;;;;5013829;28;20502;-68
2021/12/04 07:32:37;;;;;;;1999.90;999.90;;;4.10;99.90;;;;;;5014219;28;20456;-68
2021/12/04 07:35:07;;;;;;;1999.90;999.90;;;4.10;99.90;;;;;;5013754;28;20852;-69
2021/12/04 07:37:33;;;;;;;1999.90;999.90;;;4.10;99.90;;;;;;5013682;28;20463;-69
2021/12/04 07:40:00;;;;;;;1999.90;999.90;;;4.00;99.90;;;;;;5013439;28;20467;-69
2021/12/04 07:42:27;;;;;;;1999.90;999.90;;;4.00;99.90;;;;;;5013220;28;20869;-69
2021/12/04 07:44:53;;;;;;;1999.90;999.90;;;4.00;99.90;;;;;;5013651;28;20940;-69
2021/12/04 07:47:20;;;;;;;1999.90;999.90;;;4.00;99.90;;;;;;5013742;28;20472;-69
2021/12/04 07:49:47;;;;;;;1999.90;999.90;;;4.00;99.90;;;;;;5013294;28;20448;-70
2021/12/04 07:52:15;;;;;;;1999.90;999.90;;;4.00;99.90;;;;;;5013683;28;20588;-69
2021/12/04 07:54:42;;;;;;;1999.90;999.90;;;4.10;99.90;;;;;;5012904;28;20527;-69
2021/12/04 07:57:09;;;;;;;1999.90;999.90;;;4.00;99.90;;;;;;5013280;28;20558;-69
2021/12/04 07:59:36;;;;;;;1999.90;999.90;;;4.00;99.90;;;;;;5013643;28;20448;-69
2021/12/04 08:02:03;;;;;;;1999.90;999.90;;;4.10;99.90;;;;;;5013239;28;20514;-67
2021/12/04 08:04:29;;;;;;;1999.90;999.90;;;4.10;99.90;;;;;;5013192;28;20532;-67
2021/12/04 08:06:56;;;;;;;1999.90;999.90;;;4.10;99.90;;;;;;5010673;28;20534;-69
2021/12/04 08:09:24;;;;;;;1999.90;999.90;;;4.10;99.90;;;;;;5012454;28;20456;-69
2021/12/04 08:11:51;;;;;;;1999.90;999.90;;;4.20;99.90;;;;;;5012977;28;20448;-69
2021/12/04 08:14:18;;;;;;;1999.90;999.90;;;4.20;99.90;;;;;;5013284;28;20448;-69
2021/12/04 08:16:45;;;;;;;1999.90;999.90;;;4.20;99.90;;;;;;5013008;28;20912;-69
2021/12/04 08:19:11;;;;;;;1999.90;999.90;;;4.30;99.90;;;;;;5012692;28;20459;-69
2021/12/04 08:21:38;;;;;;;1999.90;999.90;;;4.20;99.90;;;;;;5008960;28;20452;-69
2021/12/04 08:24:06;;;;;;;1999.90;999.90;;;4.20;99.90;;;;;;5011489;28;20502;-69
2021/12/04 08:26:35;;;;;;;1999.90;999.90;;;4.30;99.90;;;;;;5012508;28;21172;-69
2021/12/04 08:29:02;;;;;;;1999.90;999.90;;;4.30;99.90;;;;;;5013357;28;20448;-71
2021/12/04 08:31:29;;;;;;;1999.90;999.90;;;4.30;99.90;;;;;;5013275;28;20456;-69
2021/12/04 08:33:55;;;;;;;1999.90;999.90;;;4.30;99.90;;;;;;5000990;28;20445;-70
2021/12/04 08:36:22;;;;;;;1999.90;999.90;;;4.30;99.90;;;;;;4993737;28;20524;-71
2021/12/04 08:38:50;;;;;;;1999.90;999.90;;;4.40;99.90;;;;;;4998307;28;20504;-69
2021/12/04 08:41:18;;;;;;;1999.90;999.90;;;4.40;99.90;;;;;;5011959;28;21026;-69
2021/12/04 08:43:46;;;;;;;1999.90;999.90;;;4.40;99.90;;;;;;5012812;28;20451;-69
2021/12/04 08:46:13;;;;;;;1999.90;999.90;;;4.50;99.90;;;;;;5008674;28;20468;-69
2021/12/04 08:48:40;;;;;;;1999.90;999.90;;;4.50;99.90;;;;;;5013950;28;20455;-70
2021/12/04 08:51:07;;;;;;;1999.90;999.90;;;4.60;99.90;;;;;;5014053;28;21150;-70
2021/12/04 08:53:34;;;;;;;1999.90;999.90;;;4.60;99.90;;;;;;5014129;28;20510;-69
2021/12/04 08:56:01;;;;;;;1999.90;999.90;;;4.60;99.90;;;;;;5013583;28;20487;-69
2021/12/04 08:58:27;;;;;;;1999.90;999.90;;;4.60;99.90;;;;;;5014291;28;20448;-69
2021/12/04 09:01:00;;;;;;;1999.90;999.90;;;4.70;99.90;;;;;;5014096;28;20440;-70
2021/12/04 09:03:29;;;;;;;1999.90;999.90;;;4.80;99.90;;;;;;5015045;28;20456;-70
2021/12/04 09:05:56;;;;;;;1999.90;999.90;;;4.90;99.90;;;;;;5008690;28;20523;-70
2021/12/04 09:08:25;;;;;;;1999.90;999.90;;;4.80;99.90;;;;;;5014772;28;20874;-69
2021/12/04 09:10:53;;;;;;;1999.90;999.90;;;4.90;99.90;;;;;;5014960;28;20498;-69
2021/12/04 09:13:20;;;;;;;1999.90;999.90;;;5.00;99.90;;;;;;5013092;28;20502;-70
2021/12/04 09:15:47;;;;;;;1999.90;999.90;;;5.10;99.90;;;;;;5016212;28;20538;-69
2021/12/04 09:18:15;;;;;;;1999.90;999.90;;;5.30;99.90;;;;;;5016680;28;20444;-70
2021/12/04 09:20:42;;;;;;;1999.90;999.90;;;5.40;99.90;;;;;;5014816;28;20460;-70
2021/12/04 09:23:15;;;;;;;1999.90;999.90;;;5.40;99.90;;;;;;5016760;28;20460;-69
2021/12/04 09:25:45;;;;;;;1999.90;999.90;;;5.50;99.90;;;;;;5016614;28;20429;-70
2021/12/04 09:28:18;;;;;;;1999.90;999.90;;;5.40;99.90;;;;;;5016433;28;20519;-70
2021/12/04 09:33:58;;;;;;;1999.90;999.90;;;5.30;99.90;;;;;;5016470;28;20459;-69
2021/12/04 09:36:47;;;;;;;1999.90;999.90;;;5.10;99.90;;;;;;5015733;28;20550;-69
2021/12/04 10:04:17;;;;;;;1999.90;999.90;;;5.50;99.90;;;;;;5017154;28;20472;-70
2021/12/04 10:20:43;;;;;;;1999.90;999.90;;;5.80;99.90;;;;;;5019098;28;20446;-71
2021/12/04 10:34:15;;;;;;;1999.90;999.90;;;6.10;99.90;;;;;;5019196;28;20424;-69
2021/12/04 10:36:43;;;;;;;1999.90;999.90;;;6.00;99.90;;;;;;5018381;28;20488;-70
2021/12/04 10:39:12;;;;;;;1999.90;999.90;;;6.30;99.90;;;;;;5017601;28;20448;-70
2021/12/04 10:41:42;;;;;;;1999.90;999.90;;;6.20;99.90;;;;;;5017707;28;20460;-70
2021/12/04 10:44:12;;;;;;;1999.90;999.90;;;6.20;99.90;;;;;;5019703;28;20441;-70
2021/12/04 10:46:38;;;;;;;1999.90;999.90;;;6.00;99.90;;;;;;5019163;28;20467;-69
2021/12/04 10:49:12;;;;;;;1999.90;999.90;;;6.00;99.90;;;;;;5018177;28;20444;-69
2021/12/04 10:51:48;;;;;;;1999.90;999.90;;;6.00;99.90;;;;;;5018771;28;20448;-70
2021/12/04 10:54:23;;;;;;;1999.90;999.90;;;5.90;99.90;;;;;;5018522;28;20490;-69
2021/12/04 10:57:03;;;;;;;1999.90;999.90;;;6.00;99.90;;;;;;5018880;28;20518;-70
2021/12/04 10:59:45;;;;;;;1999.90;999.90;;;6.00;99.90;;;;;;5018947;28;20467;-70
2021/12/04 11:02:18;;;;;;;1999.90;999.90;;;6.20;99.90;;;;;;5017827;28;20453;-70
2021/12/04 11:04:48;;;;;;;1999.90;999.90;;;6.20;99.90;;;;;;5018606;28;20460;-70
2021/12/04 11:24:05;;;;;;;1999.90;999.90;;;6.10;99.90;;;;;;5007256;28;20485;-70
2021/12/04 11:26:47;;;;;;;1999.90;999.90;;;6.40;99.90;;;;;;5017786;28;20466;-69
2021/12/04 11:40:36;;;;;;;1999.90;999.90;;;6.20;99.90;;;;;;4998423;28;20436;-70
2021/12/04 11:43:09;;;;;;;1999.90;999.90;;;6.20;99.90;;;;;;5015171;28;20455;-69
2021/12/04 11:45:44;;;;;;;1999.90;999.90;;;6.20;99.90;;;;;;5017686;28;20488;-68
2021/12/04 11:48:11;;;;;;;1999.90;999.90;;;6.30;99.90;;;;;;5017787;28;20447;-70
2021/12/04 11:50:39;;;;;;;1999.90;999.90;;;6.30;99.90;;;;;;5017522;28;21008;-70
2021/12/04 11:53:10;;;;;;;1999.90;999.90;;;6.30;99.90;;;;;;5017583;28;20479;-69
2021/12/04 11:55:39;;;;;;;1999.90;999.90;;;6.30;99.90;;;;;;5017471;28;20452;-68
2021/12/04 11:58:19;;;;;;;1999.90;999.90;;;6.30;99.90;;;;;;5017929;28;20508;-70
2021/12/04 12:00:47;;;;;;;1999.90;999.90;;;6.20;99.90;;;;;;5016497;28;20460;-69
2021/12/04 12:03:16;;;;;;;1999.90;999.90;;;6.20;99.90;;;;;;5017743;28;20543;-70
2021/12/04 12:05:47;;;;;;;1999.90;999.90;;;6.10;99.90;;;;;;5017967;28;20475;-69
2021/12/04 12:08:26;;;;;;;1999.90;999.90;;;6.20;99.90;;;;;;5017506;28;20444;-70
2021/12/04 12:10:55;;;;;;;1999.90;999.90;;;6.10;99.90;;;;;;5016660;28;20433;-70
2021/12/04 12:13:31;;;;;;;1999.90;999.90;;;6.00;99.90;;;;;;5017650;28;20444;-71
2021/12/04 12:16:01;;;;;;;1999.90;999.90;;;5.90;99.90;;;;;;5017727;28;20528;-69
2021/12/04 12:18:28;;;;;;;1999.90;999.90;;;5.90;99.90;;;;;;5017164;28;20587;-69
2021/12/04 12:20:58;;;;;;;1999.90;999.90;;;5.90;99.90;;;;;;5017259;28;20948;-70
2021/12/04 12:23:27;;;;;;;1999.90;999.90;;;6.00;99.90;;;;;;5016858;28;20452;-70
2021/12/04 12:26:26;;;;;;;1999.90;999.90;;;5.90;99.90;;;;;;5016962;28;20475;-71
2021/12/04 12:37:20;;;;;;;1999.90;999.90;;;6.10;99.90;;;;;;5016889;28;20488;-70
2021/12/04 12:39:56;;;;;;;1999.90;999.90;;;6.20;99.90;;;;;;5016852;28;20452;-70
2021/12/04 12:42:24;;;;;;;1999.90;999.90;;;6.20;99.90;;;;;;5015298;28;20446;-70
2021/12/04 12:44:53;;;;;;;1999.90;999.90;;;6.20;99.90;;;;;;5015816;28;21011;-70
2021/12/04 12:47:21;;;;;;;1999.90;999.90;;;6.20;99.90;;;;;;5011130;28;20468;-70
2021/12/04 12:49:49;;;;;;;1999.90;999.90;;;6.10;99.90;;;;;;5016596;28;20464;-70
2021/12/04 12:52:20;;;;;;;1999.90;999.90;;;6.10;99.90;;;;;;5016115;28;21379;-70
2021/12/04 12:54:52;;;;;;;1999.90;999.90;;;5.90;99.90;;;;;;5013645;28;20452;-69
2021/12/04 12:57:23;;;;;;;1999.90;999.90;;;5.90;99.90;;;;;;5013465;28;20491;-69
2021/12/04 13:13:53;;;;;;;1999.90;999.90;;;5.60;99.90;;;;;;5015310;28;21018;-70
2021/12/04 13:16:28;;;;;;;1999.90;999.90;;;5.60;99.90;;;;;;5015871;28;20506;-69
2021/12/04 13:18:58;;;;;;;1999.90;999.90;;;5.60;99.90;;;;;;5016599;28;20436;-71
2021/12/04 13:21:26;;;;;;;1999.90;999.90;;;5.60;99.90;;;;;;5016368;28;20456;-70
2021/12/04 13:23:56;;;;;;;1999.90;999.90;;;5.60;99.90;;;;;;5015662;28;20451;-70
2021/12/04 13:26:29;;;;;;;1999.90;999.90;;;5.60;99.90;;;;;;5016191;28;20463;-70
2021/12/04 13:28:58;;;;;;;1999.90;999.90;;;5.70;99.90;;;;;;5015023;28;20455;-70
2021/12/04 13:31:27;;;;;;;1999.90;999.90;;;5.60;99.90;;;;;;5015401;28;20451;-70
2021/12/04 13:33:55;;;;;;;1999.90;999.90;;;5.70;99.90;;;;;;5015395;28;20452;-70
2021/12/04 13:36:23;;;;;;;1999.90;999.90;;;5.60;99.90;;;;;;5015636;28;20996;-68
2021/12/04 13:38:53;;;;;;;1999.90;999.90;;;5.60;99.90;;;;;;5015856;28;21125;-70
2021/12/04 13:41:20;;;;;;;1999.90;999.90;;;5.50;99.90;;;;;;5015943;28;20932;-70
2021/12/04 13:43:52;;;;;;;1999.90;999.90;;;5.60;99.90;;;;;;5016397;28;20456;-69
2021/12/04 13:46:18;;;;;;;1999.90;999.90;;;5.60;99.90;;;;;;5016269;28;20559;-71
2021/12/04 13:48:47;;;;;;;1999.90;999.90;;;5.60;99.90;;;;;;5016770;28;20448;-70
2021/12/04 13:51:14;;;;;;;1999.90;999.90;;;5.80;99.90;;;;;;5016182;28;20451;-71
2021/12/04 13:53:43;;;;;;;1999.90;999.90;;;5.90;99.90;;;;;;5015441;28;20512;-70
2021/12/04 13:56:11;;;;;;;1999.90;999.90;;;5.90;99.90;;;;;;5015760;28;20557;-71
2021/12/04 13:58:45;;;;;;;1999.90;999.90;;;5.80;99.90;;;;;;5015078;28;20478;-72
2021/12/04 14:01:12;;;;;;;1999.90;999.90;;;5.70;99.90;;;;;;5011479;28;21073;-72
2021/12/04 14:03:39;;;;;;;1999.90;999.90;;;5.80;99.90;;;;;;5012123;28;20456;-70
2021/12/04 14:06:10;;;;;;;1999.90;999.90;;;5.50;99.90;;;;;;5014052;28;20463;-71
2021/12/04 14:08:37;;;;;;;1999.90;999.90;;;5.40;99.90;;;;;;5012899;28;20535;-70
2021/12/04 14:11:04;;;;;;;1999.90;999.90;;;5.30;99.90;;;;;;5013134;28;20929;-70
2021/12/04 14:13:30;;;;;;;1999.90;999.90;;;5.30;99.90;;;;;;5012567;28;20502;-71
2021/12/04 14:15:59;;;;;;;1999.90;999.90;;;5.10;99.90;;;;;;5011326;28;20868;-72
2021/12/04 14:18:28;;;;;;;1999.90;999.90;;;5.10;99.90;;;;;;5012235;28;20506;-71
2021/12/04 14:21:00;;;;;;;1999.90;999.90;;;5.00;99.90;;;;;;5013452;28;20543;-70
2021/12/04 14:23:28;;;;;;;1999.90;999.90;;;5.00;99.90;;;;;;5012479;28;20452;-71
2021/12/04 14:25:55;;;;;;;1999.90;999.90;;;5.00;99.90;;;;;;5015766;28;21011;-71
2021/12/04 14:28:25;;;;;;;1999.90;999.90;;;4.90;99.90;;;;;;5016739;28;20880;-70
2021/12/04 14:30:53;;;;;;;1999.90;999.90;;;4.90;99.90;;;;;;5017120;28;20478;-71
2021/12/04 14:33:22;;;;;;;1999.90;999.90;;;4.90;99.90;;;;;;5010041;28;20873;-71
2021/12/04 14:35:53;;;;;;;1999.90;999.90;;;4.80;99.90;;;;;;5015901;28;20463;-71
2021/12/04 14:38:21;;;;;;;1999.90;999.90;;;4.80;99.90;;;;;;5014886;28;21001;-70
2021/12/04 14:40:53;;;;;;;1999.90;999.90;;;4.50;99.90;;;;;;5014764;28;20448;-70
2021/12/04 14:43:22;;;;;;;1999.90;999.90;;;4.30;99.90;;;;;;5014369;28;20446;-69
2021/12/04 14:45:52;;;;;;;1999.90;999.90;;;4.20;99.90;;;;;;5015049;28;20871;-68
2021/12/04 14:48:21;;;;;;;1999.90;999.90;;;4.10;99.90;;;;;;5014852;28;20440;-71